Rocky Mountain Metropolitan Airport Denver US
ICAO: KBJC
IATA: BJC
Category: Medium
Scheduled Services: No

Elevation: 5673 ft
TransAlt. 18000 ft.

Airport Communications:
DENVER APP/DEP:126.1
ATIS:126.25
CTAF:118.6
GND:121.7
TWR:118.6

KBJC Zoom In..

Runways:

(A) RW 02 length 3600 ft width 75 ft
---- / hdg 23

(B) RW 11L length 9000 ft width 100 ft
---- / hdg 113

(C) RW 11R length 7002 ft width 75 ft
---- / hdg 113

(D) RW 20 length 3600 ft width 75 ft
---- / hdg 203

(E) RW 29L length 7002 ft width 75 ft
---- / hdg 293

(F) RW 29R length 9000 ft width 100 ft
ILS 111.70 / hdg 293

Location; KBJC
Day. 25 / Time. 11.58 Zulu
* Altimeter: 30.35
* Temperature: -01° c. -30.2°f.
* Wind from: 260° Speed 05 kn.
Dewpoint: -02° c.
Visibility: 10 Statute Miles.
Clouds: Clear (automated report).

KBJC 251158Z AUTO 26005KT 10SM CLR M01/M02 A3035 RMK AO2


Wind From 260°
Speed 05 kn.

  YouTube Music Video
 
jpsmedia.com for Web Design  worldairports.se 2018   terms of use